sensor_id;sensor_type;location;lat;lon;timestamp;pressure;altitude;pressure_sealevel;temperature;humidity
55759;BME280;41678;52.126;20.664;2022-08-01T00:01:40;99963.56;;;15.25;93.24
55759;BME280;41678;52.126;20.664;2022-08-01T00:07:00;99963.41;;;15.29;93.54
55759;BME280;41678;52.126;20.664;2022-08-01T00:12:20;99944.19;;;15.23;93.23
55759;BME280;41678;52.126;20.664;2022-08-01T00:17:41;99949.38;;;15.26;93.03
55759;BME280;41678;52.126;20.664;2022-08-01T00:23:02;99945.94;;;15.24;93.19
55759;BME280;41678;52.126;20.664;2022-08-01T00:28:22;99940.75;;;15.21;93.25
55759;BME280;41678;52.126;20.664;2022-08-01T00:33:42;99944.19;;;15.23;93.31
55759;BME280;41678;52.126;20.664;2022-08-01T00:39:02;99933.84;;;15.17;93.21
55759;BME280;41678;52.126;20.664;2022-08-01T00:44:21;99937.38;;;15.15;93.08
55759;BME280;41678;52.126;20.664;2022-08-01T00:49:41;99934.84;;;15.12;93.26
55759;BME280;41678;52.126;20.664;2022-08-01T00:55:01;99940.22;;;15.11;93.32
55759;BME280;41678;52.126;20.664;2022-08-01T01:00:21;99942.91;;;15.09;93.34
55759;BME280;41678;52.126;20.664;2022-08-01T01:17:02;99953.03;;;14.98;93.15
55759;BME280;41678;52.126;20.664;2022-08-01T01:34:28;99944.00;;;14.78;92.77
55759;BME280;41678;52.126;20.664;2022-08-01T01:39:50;99943.34;;;14.71;93.01
55759;BME280;41678;52.126;20.664;2022-08-01T01:45:11;99942.69;;;14.63;93.06
55759;BME280;41678;52.126;20.664;2022-08-01T01:50:32;99947.28;;;14.58;92.80
55759;BME280;41678;52.126;20.664;2022-08-01T01:55:54;99953.53;;;14.55;92.83
55759;BME280;41678;52.126;20.664;2022-08-01T02:01:15;99952.03;;;14.48;92.75
55759;BME280;41678;52.126;20.664;2022-08-01T02:06:37;99950.19;;;14.50;92.91
55759;BME280;41678;52.126;20.664;2022-08-01T02:11:58;99945.00;;;14.47;92.72
55759;BME280;41678;52.126;20.664;2022-08-01T02:17:19;99945.09;;;14.44;92.50
55759;BME280;41678;52.126;20.664;2022-08-01T02:22:45;99947.75;;;14.44;93.28
55759;BME280;41678;52.126;20.664;2022-08-01T02:28:08;99945.22;;;14.41;92.65
55759;BME280;41678;52.126;20.664;2022-08-01T02:33:36;99952.31;;;14.39;92.59
55759;BME280;41678;52.126;20.664;2022-08-01T02:38:56;99950.69;;;14.35;92.60
55759;BME280;41678;52.126;20.664;2022-08-01T02:44:28;99948.13;;;14.33;92.34
55759;BME280;41678;52.126;20.664;2022-08-01T02:49:50;99949.06;;;14.30;92.56
55759;BME280;41678;52.126;20.664;2022-08-01T02:55:13;99938.63;;;14.26;92.62
55759;BME280;41678;52.126;20.664;2022-08-01T03:00:33;99936.00;;;14.24;92.70
55759;BME280;41678;52.126;20.664;2022-08-01T03:05:53;99951.97;;;14.23;92.84
55759;BME280;41678;52.126;20.664;2022-08-01T03:11:14;99951.09;;;14.22;92.67
55759;BME280;41678;52.126;20.664;2022-08-01T03:16:36;99947.63;;;14.20;92.74
55759;BME280;41678;52.126;20.664;2022-08-01T03:21:59;99951.28;;;14.16;92.77
55759;BME280;41678;52.126;20.664;2022-08-01T03:27:23;99961.88;;;14.16;92.81
55759;BME280;41678;52.126;20.664;2022-08-01T03:32:44;99965.38;;;14.16;92.99
55759;BME280;41678;52.126;20.664;2022-08-01T03:38:05;99973.28;;;14.18;92.91
55759;BME280;41678;52.126;20.664;2022-08-01T03:43:32;99975.94;;;14.18;92.79
55759;BME280;41678;52.126;20.664;2022-08-01T03:48:55;99975.94;;;14.18;93.09
55759;BME280;41678;52.126;20.664;2022-08-01T03:54:25;99977.88;;;14.13;92.97
55759;BME280;41678;52.126;20.664;2022-08-01T03:59:48;99976.06;;;14.13;93.02
55759;BME280;41678;52.126;20.664;2022-08-01T04:05:09;99985.81;;;14.13;93.06
55759;BME280;41678;52.126;20.664;2022-08-01T04:10:29;99990.09;;;14.17;92.88
55759;BME280;41678;52.126;20.664;2022-08-01T04:15:48;99995.50;;;14.14;93.15
55759;BME280;41678;52.126;20.664;2022-08-01T04:21:08;99990.31;;;14.11;93.14
55759;BME280;41678;52.126;20.664;2022-08-01T04:26:29;99990.31;;;14.11;93.28
55759;BME280;41678;52.126;20.664;2022-08-01T04:31:49;100000.78;;;14.14;93.53
55759;BME280;41678;52.126;20.664;2022-08-01T04:37:11;99996.47;;;14.10;93.21
55759;BME280;41678;52.126;20.664;2022-08-01T04:42:35;100000.88;;;14.11;93.39
55759;BME280;41678;52.126;20.664;2022-08-01T04:47:56;100000.00;;;14.10;93.55
55759;BME280;41678;52.126;20.664;2022-08-01T04:53:19;100001.88;;;14.07;93.08
55759;BME280;41678;52.126;20.664;2022-08-01T04:58:41;100022.19;;;14.06;93.47
55759;BME280;41678;52.126;20.664;2022-08-01T05:04:01;100015.19;;;14.05;93.38
55759;BME280;41678;52.126;20.664;2022-08-01T05:09:21;100017.00;;;14.03;93.53
55759;BME280;41678;52.126;20.664;2022-08-01T05:14:41;100029.16;;;14.09;93.42
55759;BME280;41678;52.126;20.664;2022-08-01T05:20:01;100016.94;;;14.05;93.47
55759;BME280;41678;52.126;20.664;2022-08-01T05:25:21;100026.47;;;14.10;93.52
55759;BME280;41678;52.126;20.664;2022-08-01T05:30:42;100031.53;;;14.18;93.54
55759;BME280;41678;52.126;20.664;2022-08-01T05:36:02;100026.09;;;14.23;93.48
55759;BME280;41678;52.126;20.664;2022-08-01T05:41:22;100020.56;;;14.30;93.44
55759;BME280;41678;52.126;20.664;2022-08-01T05:46:41;100023.13;;;14.34;94.04
55759;BME280;41678;52.126;20.664;2022-08-01T05:52:01;100024.47;;;14.47;93.84
55759;BME280;41678;52.126;20.664;2022-08-01T05:57:21;100024.38;;;14.50;93.87
55759;BME280;41678;52.126;20.664;2022-08-01T06:02:44;100027.66;;;14.58;93.67
55759;BME280;41678;52.126;20.664;2022-08-01T06:08:04;100033.50;;;14.68;93.79
55759;BME280;41678;52.126;20.664;2022-08-01T06:13:24;100037.72;;;14.76;93.64
55759;BME280;41678;52.126;20.664;2022-08-01T06:18:43;100037.25;;;14.90;94.13
55759;BME280;41678;52.126;20.664;2022-08-01T06:24:04;100047.53;;;14.99;93.87
55759;BME280;41678;52.126;20.664;2022-08-01T06:29:24;100041.06;;;15.08;94.05
55759;BME280;41678;52.126;20.664;2022-08-01T06:34:43;100053.97;;;15.19;94.05
55759;BME280;41678;52.126;20.664;2022-08-01T06:40:09;100048.22;;;15.31;93.94
55759;BME280;41678;52.126;20.664;2022-08-01T06:45:29;100046.16;;;15.39;93.95
55759;BME280;41678;52.126;20.664;2022-08-01T06:50:49;100046.53;;;15.54;94.12
55759;BME280;41678;52.126;20.664;2022-08-01T06:56:09;100048.75;;;15.66;94.17
55759;BME280;41678;52.126;20.664;2022-08-01T07:01:29;100042.16;;;15.77;94.18
55759;BME280;41678;52.126;20.664;2022-08-01T07:06:48;100044.31;;;15.92;94.15
55759;BME280;41678;52.126;20.664;2022-08-01T07:12:08;100046.25;;;16.11;94.31
55759;BME280;41678;52.126;20.664;2022-08-01T07:17:28;100034.28;;;16.23;94.55
55759;BME280;41678;52.126;20.664;2022-08-01T07:22:48;100039.97;;;16.36;94.31
55759;BME280;41678;52.126;20.664;2022-08-01T07:28:08;100048.94;;;16.55;94.33
55759;BME280;41678;52.126;20.664;2022-08-01T07:33:28;100046.84;;;16.64;94.48
55759;BME280;41678;52.126;20.664;2022-08-01T07:38:47;100048.06;;;16.77;94.44
55759;BME280;41678;52.126;20.664;2022-08-01T07:44:07;100050.34;;;16.87;94.51
55759;BME280;41678;52.126;20.664;2022-08-01T07:49:27;100046.50;;;16.94;94.48
55759;BME280;41678;52.126;20.664;2022-08-01T07:54:47;100045.22;;;17.04;94.53
55759;BME280;41678;52.126;20.664;2022-08-01T08:00:07;100055.44;;;17.13;94.21
55759;BME280;41678;52.126;20.664;2022-08-01T08:05:28;100050.63;;;17.23;94.04
55759;BME280;41678;52.126;20.664;2022-08-01T08:10:48;100045.91;;;17.30;93.99
55759;BME280;41678;52.126;20.664;2022-08-01T08:16:08;100049.06;;;17.38;93.98
55759;BME280;41678;52.126;20.664;2022-08-01T08:21:27;100059.00;;;17.55;93.64
55759;BME280;41678;52.126;20.664;2022-08-01T08:26:49;100057.56;;;17.67;93.20
55759;BME280;41678;52.126;20.664;2022-08-01T08:32:09;100062.50;;;17.77;93.26
55759;BME280;41678;52.126;20.664;2022-08-01T08:37:29;100053.91;;;17.89;92.80
55759;BME280;41678;52.126;20.664;2022-08-01T08:42:48;100056.03;;;18.02;92.83
55759;BME280;41678;52.126;20.664;2022-08-01T08:48:09;100064.06;;;18.21;92.59
55759;BME280;41678;52.126;20.664;2022-08-01T08:53:30;100062.59;;;18.33;92.71
55759;BME280;41678;52.126;20.664;2022-08-01T08:58:52;100055.97;;;18.41;91.93
55759;BME280;41678;52.126;20.664;2022-08-01T09:04:12;100067.09;;;18.51;91.83
55759;BME280;41678;52.126;20.664;2022-08-01T09:09:32;100074.47;;;18.64;91.28
55759;BME280;41678;52.126;20.664;2022-08-01T09:14:52;100071.34;;;18.73;90.95
55759;BME280;41678;52.126;20.664;2022-08-01T09:20:22;100080.69;;;18.82;90.89
55759;BME280;41678;52.126;20.664;2022-08-01T09:25:50;100076.50;;;18.95;90.79
55759;BME280;41678;52.126;20.664;2022-08-01T09:31:15;100082.19;;;19.07;90.45
55759;BME280;41678;52.126;20.664;2022-08-01T09:42:24;100082.91;;;19.28;89.91
55759;BME280;41678;52.126;20.664;2022-08-01T09:47:44;100080.69;;;19.36;89.33
55759;BME280;41678;52.126;20.664;2022-08-01T09:53:03;100080.38;;;19.43;89.50
55759;BME280;41678;52.126;20.664;2022-08-01T09:58:23;100083.50;;;19.51;88.72
55759;BME280;41678;52.126;20.664;2022-08-01T10:03:43;100080.44;;;19.59;88.44
55759;BME280;41678;52.126;20.664;2022-08-01T10:09:03;100078.22;;;19.67;88.12
55759;BME280;41678;52.126;20.664;2022-08-01T10:14:24;100086.16;;;19.68;88.01
55759;BME280;41678;52.126;20.664;2022-08-01T10:19:45;100085.66;;;19.78;87.73
55759;BME280;41678;52.126;20.664;2022-08-01T10:25:05;100085.31;;;19.84;87.84
55759;BME280;41678;52.126;20.664;2022-08-01T10:30:25;100071.59;;;19.92;87.42
55759;BME280;41678;52.126;20.664;2022-08-01T10:35:46;100075.50;;;20.02;86.62
55759;BME280;41678;52.126;20.664;2022-08-01T10:41:05;100071.63;;;20.08;86.29
55759;BME280;41678;52.126;20.664;2022-08-01T10:46:25;100073.69;;;20.19;86.49
55759;BME280;41678;52.126;20.664;2022-08-01T10:51:46;100072.31;;;20.28;86.35
55759;BME280;41678;52.126;20.664;2022-08-01T10:57:06;100068.19;;;20.38;85.97
55759;BME280;41678;52.126;20.664;2022-08-01T11:07:54;100048.53;;;20.55;85.45
55759;BME280;41678;52.126;20.664;2022-08-01T11:13:14;100049.97;;;20.61;85.06
55759;BME280;41678;52.126;20.664;2022-08-01T11:18:33;100054.97;;;20.67;84.35
55759;BME280;41678;52.126;20.664;2022-08-01T11:23:53;100056.44;;;20.73;85.09
55759;BME280;41678;52.126;20.664;2022-08-01T11:29:15;100052.28;;;20.83;84.43
55759;BME280;41678;52.126;20.664;2022-08-01T11:34:54;100055.59;;;20.88;83.35
55759;BME280;41678;52.126;20.664;2022-08-01T11:40:16;100058.00;;;20.93;82.83
55759;BME280;41678;52.126;20.664;2022-08-01T11:51:08;100051.59;;;20.95;83.60
55759;BME280;41678;52.126;20.664;2022-08-01T11:56:34;100054.56;;;21.05;83.72
55759;BME280;41678;52.126;20.664;2022-08-01T12:01:54;100050.94;;;21.06;83.16
55759;BME280;41678;52.126;20.664;2022-08-01T12:07:15;100052.50;;;21.11;83.17
55759;BME280;41678;52.126;20.664;2022-08-01T12:12:37;100051.28;;;21.16;83.13
55759;BME280;41678;52.126;20.664;2022-08-01T12:18:05;100052.06;;;21.18;83.10
55759;BME280;41678;52.126;20.664;2022-08-01T12:23:25;100057.13;;;21.23;82.91
55759;BME280;41678;52.126;20.664;2022-08-01T12:28:45;100051.66;;;21.25;82.68
55759;BME280;41678;52.126;20.664;2022-08-01T12:34:27;100049.69;;;21.28;81.79
55759;BME280;41678;52.126;20.664;2022-08-01T12:39:48;100043.16;;;21.32;81.36
55759;BME280;41678;52.126;20.664;2022-08-01T12:45:08;100045.16;;;21.29;81.70
55759;BME280;41678;52.126;20.664;2022-08-01T12:50:30;100038.84;;;21.30;82.01
55759;BME280;41678;52.126;20.664;2022-08-01T12:55:53;100041.25;;;21.34;82.53
55759;BME280;41678;52.126;20.664;2022-08-01T13:01:14;100035.72;;;21.37;82.55
55759;BME280;41678;52.126;20.664;2022-08-01T13:06:34;100030.34;;;21.37;82.51
55759;BME280;41678;52.126;20.664;2022-08-01T13:11:54;100037.28;;;21.42;82.02
55759;BME280;41678;52.126;20.664;2022-08-01T13:17:30;100038.03;;;21.44;82.38
55759;BME280;41678;52.126;20.664;2022-08-01T13:22:50;100030.69;;;21.47;82.21
55759;BME280;41678;52.126;20.664;2022-08-01T13:28:14;100029.41;;;21.53;81.93
55759;BME280;41678;52.126;20.664;2022-08-01T13:33:46;100028.19;;;21.59;81.55
55759;BME280;41678;52.126;20.664;2022-08-01T13:39:06;100028.94;;;21.61;81.13
55759;BME280;41678;52.126;20.664;2022-08-01T13:44:45;100034.97;;;21.64;80.89
55759;BME280;41678;52.126;20.664;2022-08-01T13:50:05;100029.81;;;21.61;81.14
55759;BME280;41678;52.126;20.664;2022-08-01T13:55:25;100035.50;;;21.71;81.70
55759;BME280;41678;52.126;20.664;2022-08-01T14:00:45;100038.94;;;21.73;81.52
55759;BME280;41678;52.126;20.664;2022-08-01T14:06:05;100042.09;;;21.80;81.63
55759;BME280;41678;52.126;20.664;2022-08-01T14:11:25;100037.88;;;21.90;80.83
55759;BME280;41678;52.126;20.664;2022-08-01T14:16:44;100050.31;;;21.91;80.52
55759;BME280;41678;52.126;20.664;2022-08-01T14:22:04;100047.81;;;22.03;81.10
55759;BME280;41678;52.126;20.664;2022-08-01T14:27:24;100050.22;;;22.07;80.75
55759;BME280;41678;52.126;20.664;2022-08-01T14:32:44;100061.78;;;22.08;80.95
55759;BME280;41678;52.126;20.664;2022-08-01T14:38:03;100057.38;;;22.07;80.83
55759;BME280;41678;52.126;20.664;2022-08-01T14:43:23;100068.03;;;22.08;81.04
55759;BME280;41678;52.126;20.664;2022-08-01T14:48:43;100067.16;;;22.08;81.20
55759;BME280;41678;52.126;20.664;2022-08-01T14:54:04;100067.16;;;22.08;80.97
55759;BME280;41678;52.126;20.664;2022-08-01T14:59:25;100077.13;;;22.06;81.19
55759;BME280;41678;52.126;20.664;2022-08-01T15:04:45;100079.78;;;22.06;80.81
55759;BME280;41678;52.126;20.664;2022-08-01T15:10:06;100087.91;;;22.04;80.78
55759;BME280;41678;52.126;20.664;2022-08-01T15:15:26;100084.75;;;21.98;80.67
55759;BME280;41678;52.126;20.664;2022-08-01T15:20:46;100084.00;;;21.96;81.03
55759;BME280;41678;52.126;20.664;2022-08-01T15:26:06;100087.84;;;21.91;80.96
55759;BME280;41678;52.126;20.664;2022-08-01T15:31:33;100082.88;;;21.85;80.97
55759;BME280;41678;52.126;20.664;2022-08-01T15:36:53;100082.88;;;21.85;81.55
55759;BME280;41678;52.126;20.664;2022-08-01T15:42:15;100089.19;;;21.84;81.52
55759;BME280;41678;52.126;20.664;2022-08-01T15:47:36;100078.84;;;21.78;81.80
55759;BME280;41678;52.126;20.664;2022-08-01T15:52:55;100073.59;;;21.76;81.58
55759;BME280;41678;52.126;20.664;2022-08-01T15:58:15;100075.59;;;21.73;81.91
55759;BME280;41678;52.126;20.664;2022-08-01T16:03:35;100081.91;;;21.72;82.11
55759;BME280;41678;52.126;20.664;2022-08-01T16:08:55;100086.31;;;21.73;82.42
55759;BME280;41678;52.126;20.664;2022-08-01T16:14:15;100089.19;;;21.70;81.92
55759;BME280;41678;52.126;20.664;2022-08-01T16:19:35;100091.94;;;21.68;82.19
55759;BME280;41678;52.126;20.664;2022-08-01T16:24:54;100086.75;;;21.65;82.42
55759;BME280;41678;52.126;20.664;2022-08-01T16:37:35;100092.19;;;21.63;82.73
55759;BME280;41678;52.126;20.664;2022-08-01T16:42:55;100087.97;;;21.59;83.05
55759;BME280;41678;52.126;20.664;2022-08-01T16:48:15;100096.88;;;21.60;82.97
55759;BME280;41678;52.126;20.664;2022-08-01T16:53:36;100093.41;;;21.58;83.17
55759;BME280;41678;52.126;20.664;2022-08-01T16:58:56;100099.94;;;21.54;83.47
55759;BME280;41678;52.126;20.664;2022-08-01T17:04:16;100100.97;;;21.51;83.23
55759;BME280;41678;52.126;20.664;2022-08-01T17:09:36;100100.47;;;21.44;82.72
55759;BME280;41678;52.126;20.664;2022-08-01T17:14:56;100101.53;;;21.42;82.99
55759;BME280;41678;52.126;20.664;2022-08-01T17:20:16;100091.03;;;21.39;83.17
55759;BME280;41678;52.126;20.664;2022-08-01T17:25:36;100096.53;;;21.35;83.13
55759;BME280;41678;52.126;20.664;2022-08-01T17:30:56;100100.16;;;21.34;83.37
55759;BME280;41678;52.126;20.664;2022-08-01T17:36:16;100098.63;;;21.30;83.27
55759;BME280;41678;52.126;20.664;2022-08-01T17:41:36;100106.75;;;21.29;83.35
55759;BME280;41678;52.126;20.664;2022-08-01T17:52:16;100112.28;;;21.26;83.48
55759;BME280;41678;52.126;20.664;2022-08-01T17:57:36;100104.53;;;21.21;83.61
55759;BME280;41678;52.126;20.664;2022-08-01T18:02:56;100102.91;;;21.18;83.74
55759;BME280;41678;52.126;20.664;2022-08-01T18:08:16;100108.41;;;21.15;83.72
55759;BME280;41678;52.126;20.664;2022-08-01T18:13:36;100114.06;;;21.11;83.81
55759;BME280;41678;52.126;20.664;2022-08-01T18:18:56;100116.13;;;21.05;83.75
55759;BME280;41678;52.126;20.664;2022-08-01T18:24:16;100118.22;;;21.00;83.66
55759;BME280;41678;52.126;20.664;2022-08-01T18:29:36;100124.72;;;20.96;83.85
55759;BME280;41678;52.126;20.664;2022-08-01T18:34:55;100130.25;;;20.93;83.81
55759;BME280;41678;52.126;20.664;2022-08-01T18:40:16;100136.72;;;20.89;83.88
55759;BME280;41678;52.126;20.664;2022-08-01T18:45:35;100143.97;;;20.87;83.95
55759;BME280;41678;52.126;20.664;2022-08-01T18:50:55;100141.53;;;20.82;83.80
55759;BME280;41678;52.126;20.664;2022-08-01T18:56:14;100150.53;;;20.81;84.05
55759;BME280;41678;52.126;20.664;2022-08-01T19:01:34;100154.47;;;20.74;83.84
55759;BME280;41678;52.126;20.664;2022-08-01T19:06:54;100158.94;;;20.73;84.05
55759;BME280;41678;52.126;20.664;2022-08-01T19:12:14;100160.16;;;20.67;83.93
55759;BME280;41678;52.126;20.664;2022-08-01T19:17:34;100165.50;;;20.67;84.09
55759;BME280;41678;52.126;20.664;2022-08-01T19:22:55;100164.84;;;20.64;84.12
55759;BME280;41678;52.126;20.664;2022-08-01T19:35:58;100165.34;;;20.55;84.14
55759;BME280;41678;52.126;20.664;2022-08-01T19:41:19;100176.03;;;20.55;84.00
55759;BME280;41678;52.126;20.664;2022-08-01T19:46:41;100175.31;;;20.51;83.88
55759;BME280;41678;52.126;20.664;2022-08-01T19:52:01;100176.38;;;20.48;84.09
55759;BME280;41678;52.126;20.664;2022-08-01T19:57:22;100165.22;;;20.40;84.46
55759;BME280;41678;52.126;20.664;2022-08-01T20:03:03;100180.31;;;20.41;84.07
55759;BME280;41678;52.126;20.664;2022-08-01T20:08:23;100180.50;;;20.38;84.09
55759;BME280;41678;52.126;20.664;2022-08-01T20:13:44;100190.31;;;20.37;83.79
55759;BME280;41678;52.126;20.664;2022-08-01T20:19:06;100180.03;;;20.30;84.06
55759;BME280;41678;52.126;20.664;2022-08-01T20:24:27;100184.44;;;20.31;84.08
55759;BME280;41678;52.126;20.664;2022-08-01T20:29:48;100180.13;;;20.28;84.03
55759;BME280;41678;52.126;20.664;2022-08-01T20:35:09;100183.03;;;20.23;84.21
55759;BME280;41678;52.126;20.664;2022-08-01T20:40:29;100178.72;;;20.21;84.11
55759;BME280;41678;52.126;20.664;2022-08-01T20:45:49;100179.91;;;20.15;84.17
55759;BME280;41678;52.126;20.664;2022-08-01T20:51:09;100192.66;;;20.10;84.24
55759;BME280;41678;52.126;20.664;2022-08-01T21:15:00;100192.28;;;20.00;84.08
55759;BME280;41678;52.126;20.664;2022-08-01T21:20:21;100194.25;;;19.96;84.11
55759;BME280;41678;52.126;20.664;2022-08-01T21:25:41;100193.47;;;19.94;84.13
55759;BME280;41678;52.126;20.664;2022-08-01T21:31:03;100191.75;;;19.93;84.12
55759;BME280;41678;52.126;20.664;2022-08-01T21:36:25;100190.22;;;19.88;84.38
55759;BME280;41678;52.126;20.664;2022-08-01T21:41:45;100198.41;;;19.85;84.17
55759;BME280;41678;52.126;20.664;2022-08-01T21:47:06;100202.88;;;19.84;84.07
55759;BME280;41678;52.126;20.664;2022-08-01T21:52:38;100190.69;;;19.78;84.24
55759;BME280;41678;52.126;20.664;2022-08-01T21:58:25;100202.19;;;19.80;84.15
55759;BME280;41678;52.126;20.664;2022-08-01T22:03:51;100198.19;;;19.72;84.16
55759;BME280;41678;52.126;20.664;2022-08-01T22:09:12;100204.22;;;19.75;84.16
55759;BME280;41678;52.126;20.664;2022-08-01T22:14:38;100206.31;;;19.68;84.22
55759;BME280;41678;52.126;20.664;2022-08-01T22:20:01;100213.41;;;19.70;84.27
55759;BME280;41678;52.126;20.664;2022-08-01T22:25:21;100204.75;;;19.64;84.18
55759;BME280;41678;52.126;20.664;2022-08-01T22:30:43;100208.38;;;19.63;84.10
55759;BME280;41678;52.126;20.664;2022-08-01T22:36:04;100218.06;;;19.66;84.29
55759;BME280;41678;52.126;20.664;2022-08-01T22:41:29;100207.59;;;19.61;84.18
55759;BME280;41678;52.126;20.664;2022-08-01T22:47:03;100218.13;;;19.64;84.21
55759;BME280;41678;52.126;20.664;2022-08-01T22:52:29;100214.81;;;19.59;84.35
55759;BME280;41678;52.126;20.664;2022-08-01T22:58:02;100212.28;;;19.56;84.26
55759;BME280;41678;52.126;20.664;2022-08-01T23:08:47;100212.53;;;19.51;84.44
55759;BME280;41678;52.126;20.664;2022-08-01T23:14:10;100218.88;;;19.49;84.47
55759;BME280;41678;52.126;20.664;2022-08-01T23:19:31;100229.63;;;19.47;84.74
55759;BME280;41678;52.126;20.664;2022-08-01T23:24:51;100227.06;;;19.46;84.32
55759;BME280;41678;52.126;20.664;2022-08-01T23:30:12;100217.16;;;19.48;84.50
55759;BME280;41678;52.126;20.664;2022-08-01T23:35:33;100223.59;;;19.44;84.37
55759;BME280;41678;52.126;20.664;2022-08-01T23:40:53;100224.84;;;19.36;84.45
55759;BME280;41678;52.126;20.664;2022-08-01T23:46:13;100224.94;;;19.35;84.44
55759;BME280;41678;52.126;20.664;2022-08-01T23:51:33;100233.78;;;19.35;84.34
55759;BME280;41678;52.126;20.664;2022-08-01T23:56:53;100230.31;;;19.33;84.51
